Country
Station

 

Weather  for  Fort Collins Automatic Weather Observing/Reporting System  -  United States    United States

  
-2 °C (28 °F)
    
 
 

Current METAR for Fort Collins Automatic Weather Observing/Reporting System is :

KFNL 210756Z AUTO 06007KT 10SM CLR M02/M05 A2970 RMK AO2 SLP055 T10221050 FZRANO PNO $

 

This is a report for Fort Collins Automatic Weather Observing/Reporting System - United States.
 
The report was made 36 minutes ago, at 07:56 UTC .
The wind was blowing at a speed of 3.6 meters per second (8.1 miles per hour) from east/northeast (060°).
 
The temperature was -2 °C (28 °F), with a dew-point at -5 °C (23 °F).
The temperature felt like -6 °C (20 °F).
 
The atmospheric pressure was 1006 hPa (29.70 inHg).
The relative humidity was 79.9%.
 
The sky was clear.
 
The overall visibility was 16.1 kilometers (10.0 miles).
 

 
 
 
 

Country :   A   B   C   D   E   F   G   H   I   J   K   L   M   N   O   P   Q   R   S   T   U   V   W   Y   Z

 

Site Info  |  Disclaimer  |  Credits  |  Privacy
Contact us  |  Add to favorites
© 2013-2019 METARs - All rights reserved